createdAt,value
2018-11-26T00:07:47.636Z,3.13
2018-11-26T00:17:52.321Z,2.80
2018-11-26T00:27:58.621Z,3.00
2018-11-26T00:38:03.544Z,2.90
2018-11-26T00:48:08.957Z,2.70
2018-11-26T00:58:13.883Z,2.97
2018-11-26T01:08:18.611Z,2.57
2018-11-26T01:18:23.820Z,2.40
2018-11-26T01:28:28.600Z,4.20
2018-11-26T01:38:33.683Z,2.63
2018-11-26T01:48:38.519Z,2.77
2018-11-26T01:58:43.217Z,2.20
2018-11-26T02:08:47.908Z,2.30
2018-11-26T02:18:52.658Z,2.57
2018-11-26T02:28:57.435Z,2.20
2018-11-26T02:39:02.055Z,2.40
2018-11-26T02:49:07.001Z,2.40
2018-11-26T02:59:11.582Z,2.20
2018-11-26T03:09:16.285Z,2.30
2018-11-26T03:19:20.911Z,2.10
2018-11-26T03:29:26.956Z,2.07
2018-11-26T03:39:31.774Z,2.20
2018-11-26T03:49:37.084Z,2.23
2018-11-26T03:59:41.688Z,2.10
2018-11-26T04:09:46.424Z,2.00
2018-11-26T04:19:51.060Z,2.10
2018-11-26T04:29:55.716Z,2.33
2018-11-26T04:40:00.389Z,2.00
2018-11-26T04:50:06.240Z,2.20
2018-11-26T05:00:13.993Z,2.00
2018-11-26T05:10:18.688Z,1.90
2018-11-26T05:20:23.305Z,1.77
2018-11-26T05:30:27.854Z,1.70
2018-11-26T05:40:32.488Z,2.00
2018-11-26T05:50:37.192Z,1.90
2018-11-26T06:00:41.772Z,1.60
2018-11-26T06:10:46.328Z,1.70
2018-11-26T06:20:51.104Z,1.57
2018-11-26T06:30:56.729Z,1.83
2018-11-26T06:41:02.509Z,1.60
2018-11-26T06:51:07.650Z,1.60
2018-11-26T07:01:12.399Z,1.60
2018-11-26T07:11:16.969Z,1.50
2018-11-26T07:21:21.577Z,1.70
2018-11-26T07:31:27.062Z,1.60
2018-11-26T07:41:31.771Z,1.70
2018-11-26T07:51:36.638Z,1.57
2018-11-26T08:01:41.285Z,1.43
2018-11-26T08:11:45.899Z,1.50
2018-11-26T08:21:50.608Z,1.33
2018-11-26T08:31:55.298Z,1.50
2018-11-26T08:42:00.107Z,1.50
2018-11-26T08:52:04.723Z,1.40
2018-11-26T09:02:10.742Z,1.37
2018-11-26T09:12:15.363Z,1.30
2018-11-26T09:22:19.983Z,1.20
2018-11-26T09:32:24.671Z,1.40
2018-11-26T09:42:29.289Z,1.40
2018-11-26T09:52:34.026Z,1.40
2018-11-26T10:02:39.026Z,1.33
2018-11-26T10:12:44.952Z,1.30
2018-11-26T10:22:51.060Z,1.60
2018-11-26T10:32:55.687Z,1.43
2018-11-26T10:43:01.306Z,1.40
2018-11-26T10:53:06.097Z,1.67
2018-11-26T11:03:10.746Z,1.80
2018-11-26T11:13:15.536Z,1.80
2018-11-26T11:23:20.293Z,1.80
2018-11-26T11:43:29.526Z,2.20
2018-11-26T11:53:34.245Z,2.70
2018-11-26T12:03:38.936Z,2.10
2018-11-26T12:13:43.582Z,2.40
2018-11-26T12:23:48.601Z,3.20
2018-11-26T12:33:53.308Z,3.30
2018-11-26T12:43:57.922Z,3.13
2018-11-26T12:54:02.521Z,3.27
2018-11-26T13:04:07.313Z,3.00
2018-11-26T13:14:11.931Z,2.90
2018-11-26T13:24:16.531Z,3.17
2018-11-26T13:34:21.600Z,2.97
2018-11-26T13:44:26.206Z,3.57
2018-11-26T13:54:31.277Z,3.90
2018-11-26T14:04:36.024Z,2.80
2018-11-26T14:14:41.082Z,2.97
2018-11-26T14:24:45.966Z,2.80
2018-11-26T14:34:50.601Z,2.57
2018-11-26T14:44:55.606Z,2.50
2018-11-26T14:55:00.338Z,3.33
2018-11-26T15:05:05.909Z,2.80
2018-11-26T15:15:18.315Z,3.17
2018-11-26T15:25:31.870Z,3.60
2018-11-26T15:35:36.747Z,3.07
2018-11-26T15:45:41.583Z,6.40
2018-11-26T15:55:46.434Z,3.77
2018-11-26T16:05:51.101Z,3.43
2018-11-26T16:15:55.751Z,3.53
2018-11-26T16:26:00.620Z,3.70
2018-11-26T16:36:05.909Z,3.50
2018-11-26T16:46:10.691Z,3.43
2018-11-26T16:56:15.498Z,3.40
2018-11-26T17:06:21.021Z,3.23
2018-11-26T17:16:26.081Z,3.50
2018-11-26T17:26:30.846Z,4.07
2018-11-26T17:36:36.881Z,3.73
2018-11-26T17:46:41.591Z,5.30
2018-11-26T17:56:46.247Z,5.70
2018-11-26T18:06:51.296Z,5.40
2018-11-26T18:16:57.666Z,5.50
2018-11-26T18:27:02.414Z,5.87
2018-11-26T18:37:07.467Z,5.47
2018-11-26T18:47:12.921Z,5.83
2018-11-26T18:57:19.154Z,5.53
2018-11-26T19:07:24.381Z,4.80
2018-11-26T19:17:29.017Z,5.27
2018-11-26T19:27:34.589Z,4.63
2018-11-26T19:37:40.194Z,4.70
2018-11-26T19:47:45.276Z,5.03
2018-11-26T19:57:50.449Z,5.97
2018-11-26T20:07:55.725Z,5.13
2018-11-26T20:18:00.862Z,7.50
2018-11-26T20:28:06.243Z,13.10
2018-11-26T20:38:13.172Z,13.30
2018-11-26T20:48:19.078Z,12.77
2018-11-26T20:58:24.018Z,12.87
2018-11-26T21:08:29.892Z,12.20
2018-11-26T21:18:35.224Z,10.80
2018-11-26T21:28:40.385Z,11.33
2018-11-26T21:38:45.790Z,10.83
2018-11-26T21:48:50.895Z,10.90
2018-11-26T21:58:56.016Z,9.10
2018-11-26T22:09:01.172Z,6.73
2018-11-26T22:19:06.933Z,13.47
2018-11-26T22:29:11.989Z,10.47
2018-11-26T22:39:17.074Z,9.83
2018-11-26T22:49:21.715Z,10.37
2018-11-26T22:59:26.374Z,9.63
2018-11-26T23:09:31.475Z,9.30
2018-11-26T23:19:36.472Z,8.83
2018-11-26T23:29:41.149Z,9.13
2018-11-26T23:39:45.970Z,8.80
2018-11-26T23:49:51.663Z,8.20
2018-11-26T23:59:56.534Z,3.30
